This is the latest recevied weather packets stored in our database for station/object N3AVN. If no packets are shown the sender has not sent any weather packets the latest 10 day(s).
| Time | Temp. | Humidity | Pressure | Rain* | Wind** | Luminosity | Snow |
|---|---|---|---|---|---|---|---|
| 1777607288 | 7.78° C | 78% | 1008 hPa | 0 mm | - | 0 W/m² | - |
| 1777606983 | 8.33° C | 77% | 1007.9 hPa | 0 mm | - | 0 W/m² | - |
| 1777606679 | 8.33° C | 79% | 1007.8 hPa | 0 mm | - | 0 W/m² | - |
| 1777606376 | 8.33° C | 77% | 1007.8 hPa | 0 mm | - | 0 W/m² | - |
| 1777606075 | 8.33° C | 77% | 1007.8 hPa | 0 mm | - | 0 W/m² | - |
| 1777605772 | 8.33° C | 77% | 1007.9 hPa | 0 mm | - | 0 W/m² | - |
| 1777605470 | 7.78° C | 80% | 1007.7 hPa | 0 mm | - | 0 W/m² | - |
| 1777605168 | 7.78° C | 81% | 1007.9 hPa | 0 mm | - | 0 W/m² | - |
| 1777604863 | 7.78° C | 82% | 1007.8 hPa | 0 mm | - | 0 W/m² | - |
| 1777604559 | 7.78° C | 82% | 1007.8 hPa | 0 mm | - | 0 W/m² | - |
| 1777604255 | 7.22° C | 84% | 1007.7 hPa | 0 mm | - | 0 W/m² | - |
| 1777603951 | 7.22° C | 85% | 1007.9 hPa | 0 mm | - | 0 W/m² | - |
| 1777603648 | 7.78° C | 84% | 1007.8 hPa | 0 mm | - | 0 W/m² | - |
| 1777603344 | 7.78° C | 85% | 1007.6 hPa | 0 mm | - | 0 W/m² | - |
| 1777603040 | 7.78° C | 85% | 1007.8 hPa | 0 mm | - | 0 W/m² | - |
| 1777602735 | 7.78° C | 84% | 1007.5 hPa | 0 mm | - | 0 W/m² | - |
| 1777602430 | 8.33° C | 82% | 1007.4 hPa | 0 mm | - | 0 W/m² | - |
| 1777602127 | 8.33° C | 81% | 1007.4 hPa | 0 mm | - | 0 W/m² | - |
| 1777601822 | 8.89° C | 81% | 1007.6 hPa | 0 mm | - | 0 W/m² | - |
| 1777601517 | 8.89° C | 80% | 1007.3 hPa | 0 mm | - | 0 W/m² | - |
| 1777601213 | 8.89° C | 79% | 1007.3 hPa | 0 mm | - | 0 W/m² | - |
| 1777600911 | 9.44° C | 78% | 1007.2 hPa | 0 mm | - | 0 W/m² | - |
| 1777600606 | 8.89° C | 80% | 1007.3 hPa | 0 mm | - | 0 W/m² | - |
| 1777600302 | 8.89° C | 81% | 1007.3 hPa | 0 mm | - | 0 W/m² | - |
| 1777599998 | 9.44° C | 82% | 1007.2 hPa | 0 mm | - | 0 W/m² | - |
* Rain latest hour (hover to see other rain measurements)
** Current wind speed in m/s (hover to see current wind gust speed)